Time;durP1;ratioP1;P1;durP2;ratioP2;P2;SDS_P1;SDS_P2;PMS_P1;PMS_P2;Temp;Humidity;BMP_temperature;BMP_pressure;BME280_temperature;BME280_humidity;BME280_pressure;Samples;Min_cycle;Max_cycle;Signal;HPM_P1;HPM_P2
2024/01/27 00:00:45;;;;;;;1.70;1.07;;;;;;;3.63;100.00;99841.75;4197839;28;21004;-70
2024/01/27 00:03:11;;;;;;;9.83;2.87;;;;;;;3.56;100.00;99856.56;4194796;28;20239;-67
2024/01/27 00:05:38;;;;;;;1.97;1.20;;;;;;;3.60;100.00;99864.25;4214507;28;20299;-69
2024/01/27 00:08:05;;;;;;;0.70;0.70;;;;;;;3.64;100.00;99865.69;4203454;28;21897;-66
2024/01/27 00:10:31;;;;;;;0.57;0.43;;;;;;;3.62;100.00;99869.47;4201337;28;20235;-70
2024/01/27 00:12:58;;;;;;;2.80;1.43;;;;;;;3.64;100.00;99880.91;4193644;28;20368;-67
2024/01/27 00:15:24;;;;;;;4.03;0.60;;;;;;;3.58;100.00;99881.41;4196888;28;20243;-67
2024/01/27 00:17:51;;;;;;;0.00;0.00;;;;;;;3.64;100.00;99880.91;4195782;28;20423;-70
2024/01/27 00:20:17;;;;;;;0.20;0.13;;;;;;;3.64;100.00;99899.66;4197340;28;20264;-71
2024/01/27 00:22:44;;;;;;;0.30;0.30;;;;;;;3.61;100.00;99903.44;4195643;28;20834;-67
2024/01/27 00:25:10;;;;;;;0.10;0.10;;;;;;;3.55;100.00;99905.69;4194289;28;25870;-66
2024/01/27 00:27:37;;;;;;;4.13;0.67;;;;;;;3.56;100.00;99920.78;4189037;28;21046;-66
2024/01/27 00:30:04;;;;;;;0.20;0.20;;;;;;;3.46;100.00;99920.63;4192657;28;20409;-68
2024/01/27 00:32:31;;;;;;;1.80;0.80;;;;;;;3.46;100.00;99913.44;4194755;28;22009;-67
2024/01/27 00:34:57;;;;;;;1.23;0.43;;;;;;;3.48;100.00;99918.69;4197461;28;20264;-69
2024/01/27 00:37:25;;;;;;;1.73;0.60;;;;;;;3.48;100.00;99929.38;4195146;28;20258;-68
2024/01/27 00:39:52;;;;;;;0.00;0.00;;;;;;;3.52;100.00;99932.69;4193547;28;20251;-66
2024/01/27 00:42:23;;;;;;;0.67;0.30;;;;;;;3.49;100.00;99939.13;4196205;28;20288;-68
2024/01/27 00:44:50;;;;;;;0.00;0.00;;;;;;;3.51;100.00;99939.03;4185714;28;20242;-69
2024/01/27 00:47:17;;;;;;;0.20;0.10;;;;;;;3.49;100.00;99937.31;4197853;28;23005;-69
2024/01/27 00:49:43;;;;;;;1.20;0.83;;;;;;;3.42;100.00;99959.28;4196521;28;20282;-68
2024/01/27 00:52:10;;;;;;;2.10;1.50;;;;;;;3.44;100.00;99952.84;4193917;28;21105;-67
2024/01/27 00:54:37;;;;;;;5.20;0.20;;;;;;;3.41;100.00;99955.75;4192663;28;20657;-69
2024/01/27 00:57:04;;;;;;;0.20;0.10;;;;;;;3.44;100.00;99960.84;4195250;28;20245;-67
2024/01/27 00:59:30;;;;;;;0.00;0.00;;;;;;;3.43;100.00;99977.91;4193139;28;20654;-68
2024/01/27 01:01:57;;;;;;;2.00;0.40;;;;;;;3.32;100.00;99959.09;4192995;28;20333;-68
2024/01/27 01:04:23;;;;;;;0.20;0.20;;;;;;;3.41;100.00;99963.78;4191488;28;21241;-69
2024/01/27 01:06:50;;;;;;;0.20;0.10;;;;;;;3.41;100.00;99970.94;4193925;28;21631;-66
2024/01/27 01:09:16;;;;;;;6.17;1.00;;;;;;;3.27;100.00;99971.97;4192123;28;20390;-67
2024/01/27 01:11:43;;;;;;;2.93;0.37;;;;;;;3.27;100.00;99975.50;4193231;28;22973;-67
2024/01/27 01:14:11;;;;;;;23.83;1.43;;;;;;;3.17;100.00;99982.50;4195864;28;20669;-66
2024/01/27 01:16:37;;;;;;;4.10;0.67;;;;;;;3.13;100.00;99979.19;4196232;28;26019;-66
2024/01/27 01:19:04;;;;;;;0.17;0.10;;;;;;;3.20;100.00;99995.63;4192153;28;20237;-67
2024/01/27 01:21:31;;;;;;;5.50;0.73;;;;;;;3.15;100.00;99982.56;4199342;28;20233;-67
2024/01/27 01:23:57;;;;;;;0.30;0.27;;;;;;;3.24;100.00;99994.44;4189572;28;20236;-66
2024/01/27 01:26:24;;;;;;;1.90;0.47;;;;;;;3.19;100.00;99988.56;4197533;28;20552;-67
2024/01/27 01:28:51;;;;;;;57.07;4.83;;;;;;;3.11;100.00;99997.16;4191872;28;21082;-67
2024/01/27 01:31:18;;;;;;;0.73;0.13;;;;;;;3.20;100.00;100010.84;4182047;28;20260;-68
2024/01/27 01:33:45;;;;;;;1.90;0.67;;;;;;;3.16;100.00;100013.72;4191396;28;20237;-67
2024/01/27 01:36:11;;;;;;;5.57;0.43;;;;;;;3.18;100.00;100010.91;4192857;28;26291;-67
2024/01/27 01:38:38;;;;;;;3.50;0.60;;;;;;;3.14;100.00;100002.25;4195420;28;21723;-69
2024/01/27 01:41:05;;;;;;;3.80;0.80;;;;;;;3.16;100.00;100007.53;4192927;28;20397;-66
2024/01/27 01:43:31;;;;;;;5.87;1.40;;;;;;;3.11;100.00;100006.97;4189948;28;20659;-67
2024/01/27 01:45:58;;;;;;;4.40;0.83;;;;;;;3.13;100.00;100019.31;4194077;28;20781;-66
2024/01/27 01:48:25;;;;;;;4.23;0.77;;;;;;;3.10;100.00;100006.13;4193514;28;20243;-67
2024/01/27 01:50:53;;;;;;;3.60;0.70;;;;;;;3.15;100.00;100012.00;4192258;28;21446;-67
2024/01/27 01:53:22;;;;;;;3.47;0.77;;;;;;;3.06;100.00;100001.13;4189217;28;20235;-67
2024/01/27 01:55:50;;;;;;;6.97;0.70;;;;;;;3.09;100.00;100014.28;4192267;28;21186;-66
2024/01/27 01:58:16;;;;;;;4.10;1.03;;;;;;;3.05;100.00;100021.66;4192437;28;20239;-66
2024/01/27 02:00:44;;;;;;;1.70;0.50;;;;;;;3.05;100.00;100013.66;4195449;28;20297;-69
2024/01/27 02:03:13;;;;;;;0.20;0.20;;;;;;;3.06;100.00;100022.50;4193863;28;20232;-66
2024/01/27 02:05:40;;;;;;;0.87;0.87;;;;;;;3.13;100.00;100019.31;4199062;28;22025;-66
2024/01/27 02:08:08;;;;;;;2.83;0.33;;;;;;;3.23;100.00;100030.19;4194756;28;20240;-68
2024/01/27 02:10:38;;;;;;;7.23;1.23;;;;;;;3.06;100.00;100027.84;4194847;28;20245;-66
2024/01/27 02:13:16;;;;;;;0.20;0.20;;;;;;;3.08;100.00;100028.63;4192473;28;22705;-67
2024/01/27 02:15:43;;;;;;;0.10;0.10;;;;;;;3.14;100.00;100033.53;4191122;28;20874;-67
2024/01/27 02:18:09;;;;;;;0.00;0.00;;;;;;;3.17;100.00;100028.81;4194689;28;20233;-67
2024/01/27 02:20:37;;;;;;;1.77;0.37;;;;;;;3.07;100.00;100040.25;4180945;28;21025;-66
2024/01/27 02:23:06;;;;;;;0.00;0.00;;;;;;;3.04;100.00;100038.66;4194390;28;20680;-66
2024/01/27 02:25:33;;;;;;;0.80;0.80;;;;;;;3.08;100.00;100025.94;4190522;28;20233;-66
2024/01/27 02:28:02;;;;;;;0.73;0.17;;;;;;;3.07;100.00;100035.75;4192899;28;20235;-66
2024/01/27 02:30:29;;;;;;;2.47;1.10;;;;;;;3.06;100.00;100033.19;4197664;28;26270;-67
2024/01/27 02:32:57;;;;;;;0.20;0.20;;;;;;;3.04;100.00;100037.81;4186174;28;20239;-68
2024/01/27 02:35:24;;;;;;;11.97;1.90;;;;;;;3.00;100.00;100037.16;4196297;28;20865;-68
2024/01/27 02:37:51;;;;;;;0.00;0.00;;;;;;;3.07;100.00;100045.63;4195915;28;20248;-66
2024/01/27 02:40:17;;;;;;;0.10;0.10;;;;;;;3.03;100.00;100042.31;4195690;28;20325;-66
2024/01/27 02:42:44;;;;;;;1.00;0.43;;;;;;;3.04;100.00;100043.16;4196603;28;20231;-68
2024/01/27 02:45:11;;;;;;;3.30;1.17;;;;;;;2.98;100.00;100036.44;4184861;28;22590;-65
2024/01/27 02:47:38;;;;;;;3.70;0.43;;;;;;;3.05;99.74;100042.19;4198419;28;20298;-66
2024/01/27 02:50:06;;;;;;;1.07;0.43;;;;;;;3.08;99.51;100048.16;4197025;28;20238;-66
2024/01/27 02:52:33;;;;;;;0.00;0.00;;;;;;;3.09;99.47;100051.72;4190146;28;20569;-65
2024/01/27 02:54:59;;;;;;;2.00;0.63;;;;;;;3.04;99.24;100065.41;4195769;28;20240;-66
2024/01/27 02:57:26;;;;;;;20.27;2.33;;;;;;;3.09;98.88;100063.25;4196139;28;20279;-68
2024/01/27 02:59:53;;;;;;;3.20;0.60;;;;;;;3.07;98.88;100061.66;4198532;28;27007;-68
2024/01/27 03:02:20;;;;;;;0.97;0.43;;;;;;;3.04;99.19;100072.56;4199045;28;20661;-68
2024/01/27 03:04:46;;;;;;;6.70;0.30;;;;;;;3.13;98.71;100067.44;4202723;28;20236;-66
2024/01/27 03:07:13;;;;;;;0.03;0.03;;;;;;;3.09;98.90;100070.44;4200208;28;20528;-69
2024/01/27 03:09:40;;;;;;;0.00;0.00;;;;;;;3.03;99.13;100055.69;4200521;28;21109;-66
2024/01/27 03:12:07;;;;;;;8.60;1.10;;;;;;;3.01;98.89;100066.50;4213072;28;21122;-67
2024/01/27 03:14:34;;;;;;;0.10;0.10;;;;;;;3.02;98.76;100070.00;4201822;28;20225;-67
2024/01/27 03:17:01;;;;;;;9.10;0.50;;;;;;;3.04;98.57;100068.09;4197310;28;21785;-67
2024/01/27 03:19:27;;;;;;;4.53;0.93;;;;;;;2.98;99.04;100073.88;4195119;28;22628;-66
2024/01/27 03:21:54;;;;;;;6.17;1.13;;;;;;;2.91;99.47;100067.25;4196786;28;21747;-67
2024/01/27 03:24:20;;;;;;;8.57;0.77;;;;;;;2.92;99.50;100074.28;4198451;28;22350;-66
2024/01/27 03:26:47;;;;;;;0.77;0.77;;;;;;;2.93;98.96;100073.31;4194572;28;20228;-67
2024/01/27 03:29:14;;;;;;;19.17;1.33;;;;;;;2.86;99.48;100086.28;4195043;28;20240;-67
2024/01/27 03:31:40;;;;;;;2.43;0.60;;;;;;;3.06;96.99;100079.50;4197714;28;23745;-67
2024/01/27 03:34:06;;;;;;;7.23;1.20;;;;;;;3.07;96.99;100085.72;4200713;28;21147;-67
2024/01/27 03:36:33;;;;;;;0.10;0.10;;;;;;;3.01;97.67;100071.84;4198703;28;20237;-68
2024/01/27 03:39:00;;;;;;;3.80;1.17;;;;;;;3.01;97.37;100085.22;4197972;28;23173;-68
2024/01/27 03:41:27;;;;;;;7.83;1.63;;;;;;;2.98;97.37;100087.25;4198344;28;22309;-68
2024/01/27 03:43:53;;;;;;;0.97;0.37;;;;;;;3.00;97.31;100087.97;4201326;28;20277;-68
2024/01/27 03:46:20;;;;;;;0.20;0.20;;;;;;;3.06;97.26;100094.72;4199218;28;20312;-68
2024/01/27 03:48:46;;;;;;;0.33;0.10;;;;;;;3.09;96.51;100087.31;4202225;28;20240;-68
2024/01/27 03:51:13;;;;;;;2.50;1.60;;;;;;;3.05;96.61;100091.19;4200498;28;20237;-66
2024/01/27 03:53:40;;;;;;;11.23;1.20;;;;;;;2.97;96.42;100083.69;4186547;28;22613;-67
2024/01/27 03:56:06;;;;;;;0.77;0.27;;;;;;;3.05;96.03;100087.66;4189931;28;21771;-66
2024/01/27 03:58:33;;;;;;;27.80;1.40;;;;;;;2.96;97.29;100098.03;4204269;28;20296;-67
2024/01/27 04:00:59;;;;;;;16.97;2.93;;;;;;;2.95;96.79;100092.78;4215434;28;20235;-66
2024/01/27 04:03:26;;;;;;;8.47;1.80;;;;;;;3.01;96.38;100095.03;4199862;28;20236;-68
2024/01/27 04:05:53;;;;;;;6.63;1.27;;;;;;;3.05;96.03;100106.38;4201752;28;25581;-68
2024/01/27 04:08:19;;;;;;;3.83;1.10;;;;;;;2.92;96.73;100098.34;4204562;28;21694;-67
2024/01/27 04:10:46;;;;;;;9.37;1.80;;;;;;;2.85;97.62;100105.94;4204015;28;25463;-67
2024/01/27 04:13:12;;;;;;;15.17;1.37;;;;;;;2.90;97.70;100097.63;4211966;28;20288;-68
2024/01/27 04:15:39;;;;;;;6.83;1.20;;;;;;;2.84;97.64;100109.56;4199750;28;23315;-67
2024/01/27 04:18:11;;;;;;;3.70;0.70;;;;;;;2.85;97.63;100104.13;4197985;28;21708;-68
2024/01/27 04:20:38;;;;;;;1.70;0.47;;;;;;;2.87;97.04;100103.16;4197993;28;20484;-66
2024/01/27 04:23:05;;;;;;;0.33;0.33;;;;;;;2.93;96.24;100106.28;4201750;28;20241;-67
2024/01/27 04:25:31;;;;;;;0.93;0.43;;;;;;;2.92;96.39;100104.56;4202283;28;20237;-66
2024/01/27 04:27:58;;;;;;;2.03;0.60;;;;;;;2.88;96.87;100108.38;4198518;28;20314;-65
2024/01/27 04:30:24;;;;;;;3.20;1.23;;;;;;;2.83;97.15;100103.34;4203397;28;20356;-65
2024/01/27 04:32:51;;;;;;;0.10;0.10;;;;;;;2.84;96.99;100109.56;4193807;28;23566;-65
2024/01/27 04:35:18;;;;;;;5.60;0.83;;;;;;;2.77;97.71;100108.28;4198690;28;20817;-66
2024/01/27 04:37:45;;;;;;;7.00;1.53;;;;;;;2.71;98.32;100122.91;4198477;28;20422;-66
2024/01/27 04:40:12;;;;;;;10.83;1.97;;;;;;;2.69;98.32;100123.03;4203554;28;20256;-67
2024/01/27 04:42:40;;;;;;;3.10;1.17;;;;;;;2.74;98.51;100130.75;4203461;28;20248;-66
2024/01/27 04:45:07;;;;;;;3.30;1.63;;;;;;;2.72;98.42;100135.34;4196203;28;20255;-67
2024/01/27 04:47:34;;;;;;;5.47;0.77;;;;;;;2.73;98.65;100136.16;4196389;28;20241;-65
2024/01/27 04:50:01;;;;;;;0.77;0.50;;;;;;;2.68;98.85;100142.69;4199356;28;25245;-67
2024/01/27 04:52:27;;;;;;;1.67;0.40;;;;;;;2.67;98.91;100134.78;4198674;28;20405;-65
2024/01/27 04:54:54;;;;;;;3.60;1.23;;;;;;;2.70;99.10;100142.59;4198735;28;20311;-65
2024/01/27 04:57:20;;;;;;;3.70;1.37;;;;;;;2.64;99.47;100145.69;4195607;28;20560;-66
2024/01/27 04:59:47;;;;;;;6.40;0.93;;;;;;;2.66;99.92;100141.94;4194790;28;25880;-66
2024/01/27 05:02:13;;;;;;;14.97;3.07;;;;;;;2.62;100.00;100142.25;4200342;28;24178;-66
2024/01/27 05:04:40;;;;;;;2.17;0.80;;;;;;;2.61;100.00;100149.41;4197739;28;21209;-64
2024/01/27 05:07:07;;;;;;;7.07;1.43;;;;;;;2.51;100.00;100142.97;4197496;28;26062;-66
2024/01/27 05:09:35;;;;;;;0.50;0.47;;;;;;;2.60;100.00;100147.72;4198162;28;20634;-66
2024/01/27 05:12:02;;;;;;;7.03;3.37;;;;;;;2.53;100.00;100147.25;4194956;28;20236;-66
2024/01/27 05:14:29;;;;;;;6.87;1.90;;;;;;;2.51;100.00;100148.31;4197192;28;20574;-65
2024/01/27 05:16:56;;;;;;;3.77;1.13;;;;;;;2.49;100.00;100139.56;4198394;28;20402;-65
2024/01/27 05:19:22;;;;;;;6.50;0.63;;;;;;;2.49;100.00;100143.09;4213637;28;20294;-65
2024/01/27 05:21:49;;;;;;;5.77;1.23;;;;;;;2.56;100.00;100142.66;4202473;28;20240;-67
2024/01/27 05:24:16;;;;;;;10.33;1.10;;;;;;;2.51;99.72;100143.84;4198353;28;25738;-66
2024/01/27 05:26:42;;;;;;;2.60;1.20;;;;;;;2.50;100.00;100146.59;4198992;28;20656;-66
2024/01/27 05:29:09;;;;;;;7.57;0.97;;;;;;;2.47;100.00;100147.66;4199091;28;20231;-66
2024/01/27 05:31:36;;;;;;;21.67;2.13;;;;;;;2.53;100.00;100149.06;4194642;28;20233;-65
2024/01/27 05:34:02;;;;;;;8.17;0.50;;;;;;;2.49;100.00;100143.09;4199667;28;20465;-66
2024/01/27 05:36:29;;;;;;;5.27;0.90;;;;;;;2.41;100.00;100140.06;4199074;28;20236;-67
2024/01/27 05:38:56;;;;;;;6.63;0.63;;;;;;;2.48;100.00;100135.19;4189296;28;20244;-66
2024/01/27 05:41:28;;;;;;;7.73;1.47;;;;;;;2.45;100.00;100130.91;4196887;28;20352;-65
2024/01/27 05:43:57;;;;;;;11.97;1.83;;;;;;;2.36;100.00;100128.84;4198495;28;20231;-67
2024/01/27 05:46:24;;;;;;;10.10;2.10;;;;;;;2.38;100.00;100129.56;4194958;28;20236;-67
2024/01/27 05:48:53;;;;;;;0.00;0.00;;;;;;;2.40;100.00;100122.31;4197031;28;20241;-66
2024/01/27 05:51:22;;;;;;;1.03;0.67;;;;;;;2.35;100.00;100127.97;4198355;28;20240;-66
2024/01/27 05:53:49;;;;;;;9.77;1.37;;;;;;;2.38;100.00;100124.22;4199521;28;21242;-66
2024/01/27 05:56:20;;;;;;;16.97;0.50;;;;;;;2.41;99.70;100126.72;4201636;28;20762;-65
2024/01/27 05:58:47;;;;;;;9.77;2.23;;;;;;;2.47;98.50;100123.63;4195436;28;20236;-67
2024/01/27 06:01:14;;;;;;;1.77;0.80;;;;;;;2.59;97.12;100134.47;4194453;28;20231;-67
2024/01/27 06:03:44;;;;;;;8.50;0.87;;;;;;;2.54;97.14;100134.75;4195479;28;20440;-66
2024/01/27 06:06:11;;;;;;;0.10;0.10;;;;;;;2.56;96.34;100138.19;4189982;28;20272;-65
2024/01/27 06:08:38;;;;;;;3.10;1.17;;;;;;;2.57;96.26;100131.88;4195380;28;20614;-65
2024/01/27 06:11:04;;;;;;;11.10;2.37;;;;;;;2.59;96.14;100137.97;4194058;28;21123;-66
2024/01/27 06:13:37;;;;;;;7.40;1.23;;;;;;;2.59;95.62;100134.47;4194314;28;20250;-66
2024/01/27 06:16:11;;;;;;;6.57;1.20;;;;;;;2.60;95.82;100144.19;4196315;28;20300;-65
2024/01/27 06:18:37;;;;;;;18.20;1.03;;;;;;;2.58;96.21;100141.59;4195440;28;21584;-65
2024/01/27 06:21:05;;;;;;;11.07;2.03;;;;;;;2.51;96.92;100142.97;4196378;28;20347;-66
2024/01/27 06:23:32;;;;;;;1.80;0.30;;;;;;;2.54;96.64;100151.63;4200808;28;20241;-65
2024/01/27 06:25:59;;;;;;;5.30;0.80;;;;;;;2.51;97.71;100154.53;4195038;28;20316;-65
2024/01/27 06:28:25;;;;;;;15.33;2.50;;;;;;;2.37;98.68;100155.44;4195700;28;20311;-64
2024/01/27 06:30:52;;;;;;;15.97;1.87;;;;;;;2.29;99.73;100163.09;4198405;28;20290;-66
2024/01/27 06:33:19;;;;;;;18.30;2.60;;;;;;;2.16;100.00;100157.69;4195656;28;20228;-66
2024/01/27 06:35:45;;;;;;;17.17;2.20;;;;;;;2.11;100.00;100154.50;4201023;28;20630;-68
2024/01/27 06:38:12;;;;;;;5.17;1.27;;;;;;;2.04;100.00;100166.53;4203992;28;20874;-64
2024/01/27 06:40:38;;;;;;;9.23;1.10;;;;;;;1.98;100.00;100164.25;4199320;28;20823;-65
2024/01/27 06:43:05;;;;;;;5.00;1.10;;;;;;;1.97;100.00;100160.72;4195823;28;23133;-66
2024/01/27 06:45:31;;;;;;;0.93;0.67;;;;;;;1.93;100.00;100179.72;4199288;28;21184;-66
2024/01/27 06:47:58;;;;;;;8.40;0.73;;;;;;;1.88;100.00;100174.69;4197339;28;20563;-66
2024/01/27 06:50:25;;;;;;;3.20;0.70;;;;;;;1.85;100.00;100180.19;4198898;28;20237;-63
2024/01/27 06:52:52;;;;;;;10.73;1.93;;;;;;;1.84;100.00;100183.81;4199100;28;20240;-65
2024/01/27 06:55:19;;;;;;;11.37;0.90;;;;;;;1.85;100.00;100177.53;4195506;28;20307;-65
2024/01/27 06:57:45;;;;;;;0.73;0.20;;;;;;;1.78;100.00;100176.19;4197253;28;20406;-64
2024/01/27 07:00:14;;;;;;;4.97;1.60;;;;;;;1.73;100.00;100176.50;4198787;28;20247;-66
2024/01/27 07:02:42;;;;;;;2.90;0.83;;;;;;;1.71;100.00;100170.38;4198878;28;20244;-68
2024/01/27 07:05:09;;;;;;;7.73;1.00;;;;;;;1.67;100.00;100187.56;4202274;28;21445;-66
2024/01/27 07:07:36;;;;;;;3.77;0.90;;;;;;;1.69;100.00;100183.84;4210861;28;20825;-66
2024/01/27 07:10:03;;;;;;;0.50;0.30;;;;;;;1.67;100.00;100192.91;4196909;28;20316;-67
2024/01/27 07:12:29;;;;;;;11.63;2.73;;;;;;;1.68;100.00;100178.59;4226731;28;20245;-65
2024/01/27 07:14:56;;;;;;;12.27;1.40;;;;;;;1.70;100.00;100180.22;4203125;28;20236;-65
2024/01/27 07:17:24;;;;;;;14.40;2.77;;;;;;;1.68;100.00;100189.28;4200089;28;20260;-65
2024/01/27 07:19:50;;;;;;;4.73;1.97;;;;;;;1.64;100.00;100193.94;4195780;28;22263;-65
2024/01/27 07:22:17;;;;;;;0.50;0.50;;;;;;;1.69;100.00;100199.84;4204162;28;20229;-66
2024/01/27 07:24:44;;;;;;;3.80;0.93;;;;;;;1.68;100.00;100198.13;4201073;28;20507;-64
2024/01/27 07:27:14;;;;;;;13.70;2.90;;;;;;;1.67;100.00;100206.25;4196013;28;20233;-65
2024/01/27 07:29:40;;;;;;;16.13;3.03;;;;;;;1.59;100.00;100204.03;4180962;28;20631;-64
2024/01/27 07:32:13;;;;;;;0.73;0.23;;;;;;;1.58;100.00;100197.84;4202053;28;20542;-65
2024/01/27 07:34:43;;;;;;;6.87;1.90;;;;;;;1.58;100.00;100192.50;4203520;28;20994;-65
2024/01/27 07:37:11;;;;;;;39.30;1.80;;;;;;;1.55;100.00;100203.38;4199004;28;20233;-65
2024/01/27 07:39:37;;;;;;;5.83;2.63;;;;;;;1.56;100.00;100199.75;4198281;28;20407;-64
2024/01/27 07:42:04;;;;;;;0.80;0.63;;;;;;;1.53;100.00;100205.28;4202139;28;20240;-69
2024/01/27 07:44:31;;;;;;;0.47;0.30;;;;;;;1.51;100.00;100206.34;4217245;28;21233;-67
2024/01/27 07:46:57;;;;;;;3.47;1.63;;;;;;;1.51;100.00;100199.19;4196954;28;22374;-68
2024/01/27 07:49:24;;;;;;;8.60;1.67;;;;;;;1.56;100.00;100206.91;4201214;28;20280;-68
2024/01/27 07:51:50;;;;;;;0.30;0.30;;;;;;;1.62;100.00;100201.19;4201001;28;20233;-64
2024/01/27 07:54:17;;;;;;;1.43;0.67;;;;;;;1.56;100.00;100217.59;4201639;28;20585;-67
2024/01/27 07:56:43;;;;;;;4.57;1.20;;;;;;;1.53;100.00;100210.63;4196766;28;21813;-65
2024/01/27 07:59:14;;;;;;;8.20;2.90;;;;;;;1.50;100.00;100213.47;4199234;28;20390;-66
2024/01/27 08:01:41;;;;;;;8.60;2.20;;;;;;;1.57;100.00;100219.31;4203068;28;20362;-67
2024/01/27 08:04:08;;;;;;;3.33;1.07;;;;;;;1.61;100.00;100214.63;4200121;28;21140;-66
2024/01/27 08:06:46;;;;;;;9.50;1.80;;;;;;;1.62;100.00;100217.19;4201108;28;20285;-64
2024/01/27 08:09:13;;;;;;;15.53;1.00;;;;;;;1.63;100.00;100221.59;4195853;28;20233;-66
2024/01/27 08:11:39;;;;;;;4.03;0.93;;;;;;;1.59;100.00;100214.69;4205858;28;20248;-67
2024/01/27 08:14:06;;;;;;;4.03;1.20;;;;;;;1.59;100.00;100225.38;4198055;28;20244;-64
2024/01/27 08:16:32;;;;;;;18.30;2.27;;;;;;;1.52;100.00;100227.59;4199663;28;20240;-64
2024/01/27 08:18:59;;;;;;;10.40;1.90;;;;;;;1.53;100.00;100225.75;4198757;28;20248;-68
2024/01/27 08:21:26;;;;;;;11.07;2.10;;;;;;;1.55;100.00;100226.53;4218505;28;20255;-65
2024/01/27 08:23:53;;;;;;;7.27;1.33;;;;;;;1.56;100.00;100226.44;4196063;28;20328;-67
2024/01/27 08:26:20;;;;;;;9.77;2.20;;;;;;;1.53;100.00;100229.31;4189055;28;22778;-65
2024/01/27 08:28:47;;;;;;;1.17;0.50;;;;;;;1.56;100.00;100222.91;4203459;28;20324;-66
2024/01/27 08:31:14;;;;;;;0.07;0.07;;;;;;;1.62;100.00;100235.03;4202569;28;21626;-63
2024/01/27 08:33:40;;;;;;;9.03;2.13;;;;;;;1.62;100.00;100233.19;4193556;28;20812;-64
2024/01/27 08:36:07;;;;;;;17.23;2.07;;;;;;;1.60;100.00;100235.09;4201006;28;21643;-67
2024/01/27 08:38:35;;;;;;;0.10;0.10;;;;;;;1.58;100.00;100235.19;4206280;28;20291;-64
2024/01/27 08:41:02;;;;;;;4.17;0.97;;;;;;;1.64;100.00;100239.31;4198742;28;20623;-64
2024/01/27 08:43:28;;;;;;;29.60;3.90;;;;;;;1.55;100.00;100240.72;4201029;28;22894;-65
2024/01/27 08:45:56;;;;;;;10.47;2.43;;;;;;;1.58;100.00;100231.69;4196439;28;24863;-65
2024/01/27 08:48:23;;;;;;;6.77;1.40;;;;;;;1.67;100.00;100244.44;4195915;28;20683;-68
2024/01/27 08:50:50;;;;;;;19.77;3.40;;;;;;;1.63;100.00;100250.94;4205255;28;20236;-63
2024/01/27 08:53:17;;;;;;;2.73;0.77;;;;;;;1.60;100.00;100245.78;4197005;28;20242;-63
2024/01/27 08:55:43;;;;;;;4.47;1.33;;;;;;;1.58;100.00;100256.53;4191398;28;22140;-67
2024/01/27 08:58:11;;;;;;;16.13;2.30;;;;;;;1.56;100.00;100247.78;4191933;28;20306;-64
2024/01/27 09:00:37;;;;;;;0.50;0.40;;;;;;;1.67;100.00;100264.94;4200148;28;22251;-67
2024/01/27 09:03:05;;;;;;;11.57;2.60;;;;;;;1.60;100.00;100267.13;4193673;28;20240;-64
2024/01/27 09:05:32;;;;;;;1.60;0.67;;;;;;;1.65;100.00;100266.84;4193515;28;20235;-67
2024/01/27 09:07:59;;;;;;;3.93;1.13;;;;;;;1.71;100.00;100271.78;4203686;28;20269;-65
2024/01/27 09:10:26;;;;;;;0.30;0.30;;;;;;;1.76;100.00;100272.38;4202240;28;20345;-63
2024/01/27 09:12:52;;;;;;;9.00;2.47;;;;;;;1.73;100.00;100275.22;4200257;28;21577;-64
2024/01/27 09:15:19;;;;;;;16.90;3.37;;;;;;;1.76;100.00;100284.84;4197737;28;20233;-64
2024/01/27 09:17:47;;;;;;;2.70;1.53;;;;;;;1.73;100.00;100284.13;4199518;28;20233;-67
2024/01/27 09:20:14;;;;;;;11.97;1.37;;;;;;;1.79;100.00;100296.19;4202397;28;20341;-66
2024/01/27 09:22:41;;;;;;;0.93;0.43;;;;;;;1.91;100.00;100289.25;4199023;28;20507;-66
2024/01/27 09:25:08;;;;;;;8.23;1.77;;;;;;;1.96;100.00;100305.84;4192617;28;20836;-69
2024/01/27 09:27:35;;;;;;;6.20;1.17;;;;;;;2.02;100.00;100307.25;4199097;28;21329;-67
2024/01/27 09:30:03;;;;;;;1.90;1.17;;;;;;;2.05;100.00;100294.56;4201259;28;20244;-67
2024/01/27 09:32:29;;;;;;;0.10;0.10;;;;;;;2.09;100.00;100297.91;4198351;28;22084;-67
2024/01/27 09:34:56;;;;;;;0.40;0.40;;;;;;;2.16;100.00;100309.06;4192333;28;25209;-66
2024/01/27 09:37:23;;;;;;;0.00;0.00;;;;;;;2.30;100.00;100318.91;4198654;28;20237;-68
2024/01/27 09:39:57;;;;;;;0.43;0.10;;;;;;;2.41;100.00;100321.72;4197199;28;20649;-66
2024/01/27 09:42:24;;;;;;;0.50;0.30;;;;;;;2.38;100.00;100316.56;4191684;28;20236;-65
2024/01/27 09:44:53;;;;;;;1.60;0.57;;;;;;;2.22;100.00;100320.25;4191265;28;20278;-65
2024/01/27 09:47:21;;;;;;;1.03;0.67;;;;;;;2.24;100.00;100322.81;4197739;28;20699;-66
2024/01/27 09:49:49;;;;;;;0.77;0.60;;;;;;;2.16;100.00;100330.44;4203026;28;20461;-65
2024/01/27 09:52:15;;;;;;;21.60;1.73;;;;;;;2.24;100.00;100325.47;4217382;28;20253;-69
2024/01/27 09:54:42;;;;;;;0.10;0.10;;;;;;;2.21;100.00;100331.88;4196684;28;25142;-67
2024/01/27 09:57:09;;;;;;;0.37;0.37;;;;;;;2.26;100.00;100328.91;4212213;28;21661;-67
2024/01/27 09:59:36;;;;;;;2.33;1.60;;;;;;;2.19;100.00;100333.78;4190732;28;21752;-67
2024/01/27 10:02:06;;;;;;;0.10;0.10;;;;;;;2.30;100.00;100333.09;4187473;28;20545;-67
2024/01/27 10:04:32;;;;;;;0.83;0.67;;;;;;;2.21;100.00;100336.34;4210894;28;20488;-67
2024/01/27 10:07:00;;;;;;;2.90;0.80;;;;;;;2.28;100.00;100329.66;4201735;28;20233;-64
2024/01/27 10:09:26;;;;;;;0.00;0.00;;;;;;;2.37;100.00;100333.59;4198420;28;22203;-63
2024/01/27 10:11:55;;;;;;;0.10;0.10;;;;;;;2.47;100.00;100347.22;4190762;28;20320;-67
2024/01/27 10:14:22;;;;;;;0.30;0.30;;;;;;;2.46;100.00;100353.50;4202765;28;22086;-64
2024/01/27 10:16:50;;;;;;;1.90;0.97;;;;;;;2.37;100.00;100346.94;4196473;28;20232;-65
2024/01/27 10:19:20;;;;;;;0.10;0.10;;;;;;;2.38;100.00;100357.53;4191328;28;20238;-70
2024/01/27 10:21:48;;;;;;;0.00;0.00;;;;;;;2.56;100.00;100365.34;4196046;28;20352;-65
2024/01/27 10:24:14;;;;;;;0.10;0.10;;;;;;;2.65;100.00;100356.72;4197405;28;20231;-68
2024/01/27 10:26:41;;;;;;;0.37;0.37;;;;;;;2.65;100.00;100369.22;4195949;28;20287;-66
2024/01/27 10:29:09;;;;;;;0.73;0.40;;;;;;;2.46;100.00;100374.88;4197750;28;20284;-65
2024/01/27 10:31:36;;;;;;;0.10;0.10;;;;;;;2.59;100.00;100374.97;4194573;28;20321;-65
2024/01/27 10:34:09;;;;;;;0.20;0.13;;;;;;;2.67;100.00;100372.66;4196079;28;20228;-64
2024/01/27 10:36:43;;;;;;;0.10;0.10;;;;;;;2.58;100.00;100387.47;4188000;28;20242;-65
2024/01/27 10:39:18;;;;;;;0.00;0.00;;;;;;;2.62;100.00;100378.31;4195217;28;20291;-68
2024/01/27 10:41:49;;;;;;;0.10;0.10;;;;;;;2.58;100.00;100387.47;4196036;28;25089;-72
2024/01/27 10:44:19;;;;;;;0.50;0.43;;;;;;;2.58;100.00;100394.63;4204302;28;21985;-66
2024/01/27 10:46:48;;;;;;;5.20;1.03;;;;;;;2.64;100.00;100389.75;4191491;28;20248;-65
2024/01/27 10:49:16;;;;;;;0.10;0.10;;;;;;;2.61;100.00;100402.44;4196649;28;20253;-74
2024/01/27 10:51:50;;;;;;;0.10;0.10;;;;;;;2.65;100.00;100403.97;4210460;28;20250;-65
2024/01/27 10:54:28;;;;;;;0.20;0.20;;;;;;;2.81;100.00;100410.06;4196357;28;20282;-67
2024/01/27 10:56:59;;;;;;;0.10;0.10;;;;;;;2.71;100.00;100413.41;4191896;28;20258;-69
2024/01/27 10:59:27;;;;;;;0.00;0.00;;;;;;;2.60;100.00;100416.78;4191182;28;20378;-67
2024/01/27 11:01:54;;;;;;;0.90;0.67;;;;;;;2.62;100.00;100417.50;4197554;28;23138;-66
2024/01/27 11:04:22;;;;;;;0.10;0.10;;;;;;;2.73;100.00;100424.84;4201493;28;20299;-68
2024/01/27 11:06:50;;;;;;;0.10;0.10;;;;;;;2.81;100.00;100425.22;4195160;28;20952;-67
2024/01/27 11:09:20;;;;;;;0.00;0.00;;;;;;;2.74;100.00;100430.13;4194535;28;20240;-68
2024/01/27 11:11:48;;;;;;;2.20;2.00;;;;;;;2.59;100.00;100421.25;4194850;28;25732;-70
2024/01/27 11:14:14;;;;;;;0.07;0.07;;;;;;;2.65;100.00;100434.22;4196819;28;20351;-68
2024/01/27 11:16:47;;;;;;;0.40;0.13;;;;;;;2.55;100.00;100441.13;4192256;28;22752;-67
2024/01/27 11:19:14;;;;;;;0.00;0.00;;;;;;;2.54;100.00;100445.59;4200800;28;20292;-71
2024/01/27 11:21:40;;;;;;;0.87;0.20;;;;;;;2.49;100.00;100453.03;4200460;28;20244;-69
2024/01/27 11:24:15;;;;;;;0.43;0.40;;;;;;;2.67;100.00;100453.69;4222878;28;21313;-68
2024/01/27 11:26:42;;;;;;;1.80;0.70;;;;;;;2.55;100.00;100465.16;4201640;28;20712;-66